createdAt,value
2018-12-30T00:00:11.150Z,67.33
2018-12-30T00:02:39.687Z,67.97
2018-12-30T00:05:08.592Z,68.51
2018-12-30T00:07:37.498Z,64.98
2018-12-30T00:10:07.013Z,64.97
2018-12-30T00:12:35.578Z,66.41
2018-12-30T00:15:04.602Z,67.24
2018-12-30T00:17:33.189Z,66.39
2018-12-30T00:20:02.011Z,67.13
2018-12-30T00:22:30.604Z,66.62
2018-12-30T00:24:59.129Z,66.92
2018-12-30T00:27:27.783Z,66.36
2018-12-30T00:29:56.415Z,67.18
2018-12-30T00:32:25.391Z,67.00
2018-12-30T00:34:54.004Z,68.07
2018-12-30T00:37:22.554Z,67.91
2018-12-30T00:39:51.177Z,68.22
2018-12-30T00:42:19.806Z,65.56
2018-12-30T00:44:48.394Z,65.67
2018-12-30T00:47:16.982Z,66.62
2018-12-30T00:49:45.584Z,67.86
2018-12-30T00:52:14.248Z,67.64
2018-12-30T00:54:42.839Z,67.97
2018-12-30T00:57:11.460Z,67.58
2018-12-30T00:59:41.725Z,67.46
2018-12-30T01:02:10.353Z,68.30
2018-12-30T01:04:38.897Z,67.86
2018-12-30T01:07:07.980Z,67.82
2018-12-30T01:09:37.319Z,67.96
2018-12-30T01:12:05.901Z,68.45
2018-12-30T01:14:34.452Z,70.48
2018-12-30T01:17:03.005Z,68.38
2018-12-30T01:19:31.554Z,66.44
2018-12-30T01:22:00.565Z,67.21
2018-12-30T01:24:29.143Z,67.01
2018-12-30T01:26:57.779Z,68.09
2018-12-30T01:29:26.376Z,67.30
2018-12-30T01:31:55.026Z,67.49
2018-12-30T01:34:23.639Z,66.90
2018-12-30T01:36:52.288Z,67.08
2018-12-30T01:39:20.804Z,67.71
2018-12-30T01:41:49.425Z,66.80
2018-12-30T01:44:17.945Z,66.98
2018-12-30T01:46:46.458Z,68.04
2018-12-30T01:49:15.085Z,71.39
2018-12-30T01:51:43.710Z,67.66
2018-12-30T01:54:12.746Z,67.17
2018-12-30T01:56:41.342Z,66.92
2018-12-30T01:59:09.930Z,66.45
2018-12-30T02:01:38.490Z,67.31
2018-12-30T02:04:07.675Z,67.16
2018-12-30T02:06:36.218Z,67.26
2018-12-30T02:09:06.665Z,68.21
2018-12-30T02:11:35.284Z,68.17
2018-12-30T02:14:03.746Z,67.48
2018-12-30T02:16:32.188Z,67.37
2018-12-30T02:19:00.795Z,66.96
2018-12-30T02:21:29.531Z,68.01
2018-12-30T02:23:58.067Z,70.68
2018-12-30T02:26:26.694Z,69.85
2018-12-30T02:28:55.275Z,67.78
2018-12-30T02:31:23.904Z,67.40
2018-12-30T02:33:52.482Z,66.92
2018-12-30T02:36:21.038Z,66.89
2018-12-30T02:38:49.558Z,67.54
2018-12-30T02:41:18.260Z,67.10
2018-12-30T02:43:46.769Z,66.89
2018-12-30T02:46:15.899Z,67.72
2018-12-30T02:48:44.486Z,68.43
2018-12-30T02:51:13.018Z,67.76
2018-12-30T02:53:41.631Z,67.91
2018-12-30T02:56:10.169Z,68.80
2018-12-30T02:58:38.694Z,68.71
2018-12-30T03:01:07.990Z,70.57
2018-12-30T03:03:36.565Z,67.21
2018-12-30T03:06:05.176Z,66.75
2018-12-30T03:08:33.618Z,67.82
2018-12-30T03:11:02.263Z,67.51
2018-12-30T03:13:30.850Z,67.56
2018-12-30T03:15:59.475Z,67.56
2018-12-30T03:18:27.996Z,67.74
2018-12-30T03:20:56.687Z,67.45
2018-12-30T03:23:25.224Z,68.68
2018-12-30T03:25:53.831Z,67.34
2018-12-30T03:28:22.355Z,67.07
2018-12-30T03:30:50.855Z,67.66
2018-12-30T03:33:19.533Z,67.78
2018-12-30T03:35:48.129Z,72.58
2018-12-30T03:38:16.645Z,67.54
2018-12-30T03:40:45.255Z,66.99
2018-12-30T03:43:14.078Z,67.48
2018-12-30T03:45:42.657Z,67.46
2018-12-30T03:48:11.283Z,65.87
2018-12-30T03:50:39.903Z,67.21
2018-12-30T03:53:08.476Z,66.83
2018-12-30T03:55:37.019Z,67.10
2018-12-30T03:58:05.603Z,67.36
2018-12-30T04:00:34.162Z,67.36
2018-12-30T04:03:02.678Z,67.13
2018-12-30T04:05:31.300Z,67.54
2018-12-30T04:07:59.902Z,68.29
2018-12-30T04:10:28.469Z,69.57
2018-12-30T04:12:56.948Z,67.70
2018-12-30T04:15:25.712Z,66.48
2018-12-30T04:17:54.235Z,66.85
2018-12-30T04:20:22.822Z,66.97
2018-12-30T04:22:51.287Z,67.74
2018-12-30T04:25:19.892Z,67.97
2018-12-30T04:27:48.528Z,67.70
2018-12-30T04:30:16.976Z,68.44
2018-12-30T04:32:45.604Z,67.88
2018-12-30T04:35:14.197Z,68.57
2018-12-30T04:37:42.892Z,68.12
2018-12-30T04:40:11.409Z,68.25
2018-12-30T04:42:40.058Z,68.28
2018-12-30T04:45:08.705Z,71.42
2018-12-30T04:47:37.328Z,69.86
2018-12-30T04:50:06.710Z,67.51
2018-12-30T04:52:35.316Z,67.65
2018-12-30T04:55:03.919Z,68.20
2018-12-30T04:57:32.465Z,68.24
2018-12-30T05:00:01.052Z,67.92
2018-12-30T05:02:29.642Z,67.48
2018-12-30T05:04:58.234Z,67.70
2018-12-30T05:07:26.860Z,68.03
2018-12-30T05:09:55.296Z,68.35
2018-12-30T05:12:23.893Z,67.75
2018-12-30T05:14:52.520Z,68.36
2018-12-30T05:17:21.045Z,68.99
2018-12-30T05:19:49.587Z,69.08
2018-12-30T05:22:18.119Z,71.59
2018-12-30T05:24:46.667Z,67.40
2018-12-30T05:27:15.145Z,66.88
2018-12-30T05:29:43.752Z,67.88
2018-12-30T05:32:12.235Z,68.61
2018-12-30T05:34:40.922Z,67.97
2018-12-30T05:37:09.529Z,67.36
2018-12-30T05:39:38.813Z,68.07
2018-12-30T05:42:07.250Z,69.10
2018-12-30T05:44:35.850Z,69.24
2018-12-30T05:47:05.840Z,69.15
2018-12-30T05:49:34.471Z,69.28
2018-12-30T05:52:03.096Z,68.58
2018-12-30T05:54:31.688Z,69.06
2018-12-30T05:57:00.304Z,71.20
2018-12-30T05:59:28.923Z,68.51
2018-12-30T06:01:57.484Z,68.00
2018-12-30T06:04:26.143Z,67.23
2018-12-30T06:06:54.754Z,67.85
2018-12-30T06:09:23.288Z,69.17
2018-12-30T06:11:51.880Z,67.70
2018-12-30T06:14:20.351Z,68.57
2018-12-30T06:16:48.995Z,70.42
2018-12-30T06:19:17.539Z,70.00
2018-12-30T06:21:46.062Z,69.68
2018-12-30T06:24:14.696Z,69.62
2018-12-30T06:26:43.274Z,69.05
2018-12-30T06:29:11.738Z,69.57
2018-12-30T06:31:40.365Z,73.49
2018-12-30T06:34:09.134Z,70.98
2018-12-30T06:36:37.723Z,69.87
2018-12-30T06:39:06.837Z,68.39
2018-12-30T06:41:35.390Z,68.33
2018-12-30T06:44:04.017Z,69.03
2018-12-30T06:46:32.557Z,68.13
2018-12-30T06:49:01.181Z,69.02
2018-12-30T06:51:29.779Z,69.72
2018-12-30T06:53:58.297Z,70.27
2018-12-30T06:56:26.917Z,69.63
2018-12-30T06:58:55.509Z,70.31
2018-12-30T07:01:24.120Z,70.33
2018-12-30T07:03:52.813Z,70.62
2018-12-30T07:06:21.411Z,70.89
2018-12-30T07:08:49.883Z,71.42
2018-12-30T07:11:18.466Z,68.49
2018-12-30T07:13:46.982Z,69.07
2018-12-30T07:16:15.414Z,69.93
2018-12-30T07:18:44.028Z,69.30
2018-12-30T07:21:12.594Z,70.09
2018-12-30T07:23:41.177Z,68.73
2018-12-30T07:26:09.681Z,69.51
2018-12-30T07:28:39.165Z,68.73
2018-12-30T07:31:07.739Z,69.70
2018-12-30T07:33:36.371Z,69.46
2018-12-30T07:36:05.072Z,70.29
2018-12-30T07:38:33.664Z,70.35
2018-12-30T07:41:02.173Z,70.42
2018-12-30T07:43:30.793Z,73.53
2018-12-30T07:45:59.314Z,69.84
2018-12-30T07:48:27.945Z,69.33
2018-12-30T07:50:56.541Z,69.47
2018-12-30T07:53:25.058Z,69.43
2018-12-30T07:55:53.537Z,69.22
2018-12-30T07:58:22.008Z,69.87
2018-12-30T08:00:50.544Z,70.05
2018-12-30T08:03:19.197Z,69.66
2018-12-30T08:05:47.697Z,70.51
2018-12-30T08:08:16.347Z,69.51
2018-12-30T08:10:44.860Z,69.58
2018-12-30T08:13:13.364Z,68.99
2018-12-30T08:15:42.001Z,69.28
2018-12-30T08:18:10.563Z,72.28
2018-12-30T08:20:39.584Z,70.62
2018-12-30T08:23:08.096Z,67.01
2018-12-30T08:25:36.731Z,68.46
2018-12-30T08:28:05.255Z,68.05
2018-12-30T08:30:33.875Z,69.01
2018-12-30T08:33:02.401Z,68.32
2018-12-30T08:35:31.011Z,69.24
2018-12-30T08:37:59.624Z,69.72
2018-12-30T08:40:28.288Z,70.46
2018-12-30T08:42:56.900Z,70.31
2018-12-30T08:45:25.600Z,69.04
2018-12-30T08:47:54.184Z,69.10
2018-12-30T08:50:22.866Z,69.41
2018-12-30T08:52:51.500Z,70.83
2018-12-30T08:55:20.109Z,69.54
2018-12-30T08:57:48.589Z,68.14
2018-12-30T09:00:17.209Z,68.27
2018-12-30T09:02:45.787Z,68.59
2018-12-30T09:05:14.398Z,67.29
2018-12-30T09:07:43.100Z,67.24
2018-12-30T09:10:11.575Z,69.48
2018-12-30T09:12:40.190Z,69.73
2018-12-30T09:15:09.833Z,70.01
2018-12-30T09:17:38.456Z,70.49
2018-12-30T09:20:07.044Z,69.93
2018-12-30T09:22:35.690Z,69.88
2018-12-30T09:25:04.780Z,68.94
2018-12-30T09:27:33.271Z,68.54
2018-12-30T09:30:01.869Z,69.11
2018-12-30T09:32:30.421Z,66.27
2018-12-30T09:34:58.932Z,67.49
2018-12-30T09:37:27.492Z,66.03
2018-12-30T09:39:56.171Z,67.70
2018-12-30T09:42:24.745Z,67.43
2018-12-30T09:44:53.310Z,67.09
2018-12-30T09:47:22.088Z,67.46
2018-12-30T09:49:50.755Z,67.96
2018-12-30T09:52:19.333Z,68.32
2018-12-30T09:54:47.893Z,68.51
2018-12-30T09:57:16.480Z,69.34
2018-12-30T09:59:45.094Z,69.16
2018-12-30T10:02:13.708Z,69.08
2018-12-30T10:04:42.360Z,72.75
2018-12-30T10:07:10.966Z,69.19
2018-12-30T10:09:40.180Z,66.14
2018-12-30T10:12:08.774Z,65.62
2018-12-30T10:14:37.405Z,66.77
2018-12-30T10:17:05.991Z,67.49
2018-12-30T10:19:34.532Z,67.06
2018-12-30T10:22:03.145Z,67.29
2018-12-30T10:24:31.725Z,68.19
2018-12-30T10:27:00.216Z,68.82
2018-12-30T10:29:28.737Z,67.67
2018-12-30T10:31:57.451Z,67.23
2018-12-30T10:34:25.970Z,68.31
2018-12-30T10:36:54.482Z,68.93
2018-12-30T10:39:23.066Z,73.14
2018-12-30T10:41:51.757Z,69.57
2018-12-30T10:44:20.360Z,67.29
2018-12-30T10:46:48.952Z,67.68
2018-12-30T10:49:17.585Z,65.83
2018-12-30T10:51:46.177Z,68.30
2018-12-30T10:54:14.759Z,68.66
2018-12-30T10:56:43.394Z,67.58
2018-12-30T10:59:12.023Z,67.62
2018-12-30T11:03:46.372Z,69.29
2018-12-30T11:08:19.089Z,69.57
2018-12-30T11:10:47.729Z,67.79
2018-12-30T11:13:16.247Z,67.28
2018-12-30T11:15:44.911Z,66.82
2018-12-30T11:18:13.563Z,67.94
2018-12-30T11:20:42.193Z,65.93
2018-12-30T11:23:10.809Z,66.74
2018-12-30T11:25:39.395Z,66.78
2018-12-30T11:28:08.023Z,68.19
2018-12-30T11:30:36.603Z,69.26
2018-12-30T11:33:05.210Z,66.69
2018-12-30T11:35:33.742Z,68.74
2018-12-30T11:38:02.434Z,68.29
2018-12-30T11:40:31.037Z,69.13
2018-12-30T11:42:59.699Z,69.34
2018-12-30T11:45:28.342Z,69.92
2018-12-30T11:47:57.057Z,68.09
2018-12-30T11:50:25.633Z,67.21
2018-12-30T11:52:54.280Z,66.16
2018-12-30T11:55:22.903Z,67.12
2018-12-30T11:57:51.483Z,67.35
2018-12-30T12:00:20.086Z,68.21
2018-12-30T12:02:48.711Z,68.16
2018-12-30T12:05:17.254Z,69.90
2018-12-30T12:07:45.894Z,68.19
2018-12-30T12:10:14.513Z,68.85
2018-12-30T12:12:48.864Z,69.38
2018-12-30T12:15:13.584Z,69.06
2018-12-30T12:17:42.202Z,68.64
2018-12-30T12:20:10.951Z,68.81
2018-12-30T12:22:39.595Z,68.85
2018-12-30T12:25:08.208Z,68.14
2018-12-30T12:27:36.747Z,68.24
2018-12-30T12:30:06.596Z,67.32
2018-12-30T12:32:35.216Z,67.97
2018-12-30T12:35:03.853Z,67.97
2018-12-30T12:37:32.436Z,69.19
2018-12-30T12:40:00.988Z,68.88
2018-12-30T12:42:29.612Z,68.10
2018-12-30T12:44:58.244Z,67.95
2018-12-30T12:47:26.765Z,68.93
2018-12-30T12:49:55.370Z,69.05
2018-12-30T12:52:23.998Z,68.71
2018-12-30T12:54:52.637Z,69.10
2018-12-30T12:57:21.363Z,70.89
2018-12-30T12:59:49.816Z,68.21
2018-12-30T13:02:18.353Z,67.00
2018-12-30T13:04:47.052Z,67.97
2018-12-30T13:07:15.770Z,68.05
2018-12-30T13:09:44.429Z,67.41
2018-12-30T13:12:12.974Z,68.21
2018-12-30T13:14:41.530Z,69.11
2018-12-30T13:17:10.175Z,69.38
2018-12-30T13:19:38.915Z,68.70
2018-12-30T13:22:07.506Z,68.73
2018-12-30T13:24:39.909Z,69.58
2018-12-30T13:27:06.379Z,68.81
2018-12-30T13:29:34.963Z,69.26
2018-12-30T13:32:03.664Z,70.26
2018-12-30T13:34:32.298Z,69.02
2018-12-30T13:37:00.734Z,68.23
2018-12-30T13:39:29.360Z,67.45
2018-12-30T13:41:57.950Z,69.96
2018-12-30T13:44:26.499Z,70.34
2018-12-30T13:46:55.152Z,68.33
2018-12-30T13:49:23.869Z,69.98
2018-12-30T13:51:53.313Z,70.24
2018-12-30T13:54:22.094Z,70.06
2018-12-30T13:56:50.632Z,71.22
2018-12-30T13:59:19.380Z,71.29
2018-12-30T14:01:48.005Z,70.79
2018-12-30T14:04:16.689Z,71.84
2018-12-30T14:06:45.438Z,71.37
2018-12-30T14:09:14.039Z,70.52
2018-12-30T14:11:42.590Z,69.59
2018-12-30T14:14:11.572Z,69.53
2018-12-30T14:16:40.181Z,70.31
2018-12-30T14:19:08.804Z,69.74
2018-12-30T14:21:37.330Z,70.86
2018-12-30T14:24:05.928Z,71.68
2018-12-30T14:26:34.488Z,71.34
2018-12-30T14:29:03.052Z,70.79
2018-12-30T14:31:31.644Z,71.75
2018-12-30T14:34:00.284Z,71.21
2018-12-30T14:36:28.983Z,70.46
2018-12-30T14:38:57.705Z,71.02
2018-12-30T14:41:26.310Z,70.94
2018-12-30T14:43:54.960Z,72.94
2018-12-30T14:46:23.525Z,70.83
2018-12-30T14:48:52.173Z,70.96
2018-12-30T14:51:20.847Z,70.75
2018-12-30T14:53:49.513Z,71.28
2018-12-30T14:56:18.068Z,70.93
2018-12-30T14:58:46.746Z,72.14
2018-12-30T15:01:15.366Z,72.17
2018-12-30T15:03:44.088Z,72.67
2018-12-30T15:06:12.677Z,72.02
2018-12-30T15:08:41.627Z,72.91
2018-12-30T15:11:10.380Z,73.37
2018-12-30T15:13:38.963Z,72.83
2018-12-30T15:16:07.734Z,73.36
2018-12-30T15:18:36.456Z,73.58
2018-12-30T15:21:04.986Z,72.93
2018-12-30T15:23:33.573Z,72.30
2018-12-30T15:26:02.208Z,72.30
2018-12-30T15:28:30.840Z,72.12
2018-12-30T15:30:59.439Z,72.46
2018-12-30T15:33:28.013Z,73.96
2018-12-30T15:35:56.536Z,74.30
2018-12-30T15:38:25.103Z,74.69
2018-12-30T15:40:53.756Z,75.41
2018-12-30T15:43:22.298Z,74.91
2018-12-30T15:45:50.935Z,74.79
2018-12-30T15:48:19.519Z,74.74
2018-12-30T15:50:48.165Z,74.53
2018-12-30T15:53:16.763Z,74.45
2018-12-30T15:55:45.424Z,74.98
2018-12-30T15:58:14.016Z,73.59
2018-12-30T16:00:42.615Z,73.14
2018-12-30T16:03:12.074Z,73.44
2018-12-30T16:05:40.668Z,73.58
2018-12-30T16:08:09.326Z,74.69
2018-12-30T16:10:38.174Z,74.95
2018-12-30T16:13:06.719Z,74.84
2018-12-30T16:15:35.269Z,75.25
2018-12-30T16:18:03.813Z,75.41
2018-12-30T16:20:32.397Z,75.22
2018-12-30T16:23:01.024Z,75.55
2018-12-30T16:25:29.587Z,76.04
2018-12-30T16:27:58.311Z,75.88
2018-12-30T16:30:26.964Z,78.09
2018-12-30T16:32:55.748Z,75.84
2018-12-30T16:35:24.406Z,75.08
2018-12-30T16:37:52.844Z,76.07
2018-12-30T16:40:21.493Z,75.97
2018-12-30T16:42:50.133Z,76.34
2018-12-30T16:45:18.704Z,76.45
2018-12-30T16:47:47.239Z,77.01
2018-12-30T16:50:15.878Z,77.06
2018-12-30T16:52:44.595Z,77.08
2018-12-30T16:55:13.197Z,77.13
2018-12-30T16:57:42.218Z,76.86
2018-12-30T17:00:10.803Z,76.80
2018-12-30T17:02:39.460Z,76.74
2018-12-30T17:05:08.839Z,77.15
2018-12-30T17:07:37.361Z,77.47
2018-12-30T17:10:08.351Z,76.27
2018-12-30T17:12:36.942Z,75.88
2018-12-30T17:15:07.912Z,76.98
2018-12-30T17:17:36.562Z,77.62
2018-12-30T17:20:06.598Z,77.86
2018-12-30T17:22:35.143Z,77.49
2018-12-30T17:25:03.862Z,78.48
2018-12-30T17:27:32.464Z,78.01
2018-12-30T17:30:02.215Z,77.54
2018-12-30T17:32:30.903Z,77.26
2018-12-30T17:34:59.539Z,77.44
2018-12-30T17:37:28.184Z,77.55
2018-12-30T17:39:56.824Z,77.63
2018-12-30T17:42:25.501Z,79.06
2018-12-30T17:44:54.156Z,77.42
2018-12-30T17:47:22.786Z,77.04
2018-12-30T17:49:51.473Z,76.23
2018-12-30T17:52:20.093Z,76.25
2018-12-30T17:54:48.628Z,76.76
2018-12-30T17:57:17.335Z,77.51
2018-12-30T17:59:45.956Z,78.03
2018-12-30T18:02:14.863Z,77.83
2018-12-30T18:04:43.372Z,77.33
2018-12-30T18:07:12.497Z,77.38
2018-12-30T18:09:41.122Z,77.21
2018-12-30T18:12:09.835Z,77.71
2018-12-30T18:14:38.463Z,77.71
2018-12-30T18:17:07.073Z,79.61
2018-12-30T18:19:35.654Z,78.41
2018-12-30T18:22:04.323Z,77.26
2018-12-30T18:24:32.866Z,77.24
2018-12-30T18:27:01.453Z,76.30
2018-12-30T18:29:30.126Z,77.66
2018-12-30T18:31:58.733Z,77.62
2018-12-30T18:34:27.340Z,77.75
2018-12-30T18:36:55.989Z,77.75
2018-12-30T18:39:24.540Z,77.92
2018-12-30T18:41:53.145Z,77.77
2018-12-30T18:44:21.737Z,77.88
2018-12-30T18:46:50.437Z,77.16
2018-12-30T18:49:19.034Z,77.67
2018-12-30T18:51:47.789Z,77.88
2018-12-30T18:54:16.504Z,79.58
2018-12-30T18:56:45.268Z,76.77
2018-12-30T18:59:13.894Z,77.03
2018-12-30T19:01:42.484Z,77.33
2018-12-30T19:04:11.180Z,76.44
2018-12-30T19:06:39.843Z,76.75
2018-12-30T19:09:08.495Z,77.35
2018-12-30T19:11:37.104Z,78.14
2018-12-30T19:14:05.909Z,78.41
2018-12-30T19:16:34.609Z,78.45
2018-12-30T19:19:03.334Z,78.36
2018-12-30T19:21:31.820Z,77.84
2018-12-30T19:24:00.399Z,77.63
2018-12-30T19:26:28.964Z,77.88
2018-12-30T19:28:57.538Z,81.92
2018-12-30T19:31:26.160Z,77.32
2018-12-30T19:33:54.778Z,76.43
2018-12-30T19:36:23.368Z,75.46
2018-12-30T19:38:52.023Z,75.59
2018-12-30T19:41:20.735Z,77.11
2018-12-30T19:43:49.359Z,77.07
2018-12-30T19:46:18.129Z,76.19
2018-12-30T19:48:46.643Z,76.17
2018-12-30T19:51:15.347Z,77.31
2018-12-30T19:53:44.008Z,76.74
2018-12-30T19:56:12.644Z,77.10
2018-12-30T19:58:41.336Z,77.11
2018-12-30T20:01:10.100Z,77.77
2018-12-30T20:03:38.754Z,78.21
2018-12-30T20:06:07.508Z,77.75
2018-12-30T20:08:36.101Z,75.47
2018-12-30T20:11:04.979Z,74.96
2018-12-30T20:13:33.607Z,75.82
2018-12-30T20:16:02.211Z,75.86
2018-12-30T20:18:30.842Z,76.89
2018-12-30T20:20:59.477Z,78.32
2018-12-30T20:23:28.215Z,78.33
2018-12-30T20:25:56.821Z,77.73
2018-12-30T20:28:25.563Z,78.53
2018-12-30T20:30:54.289Z,78.48
2018-12-30T20:33:22.961Z,78.17
2018-12-30T20:35:51.615Z,78.33
2018-12-30T20:38:20.239Z,78.17
2018-12-30T20:40:48.885Z,79.95
2018-12-30T20:43:17.567Z,78.25
2018-12-30T20:45:46.213Z,75.79
2018-12-30T20:48:15.395Z,76.85
2018-12-30T20:50:44.039Z,76.19
2018-12-30T20:53:12.614Z,77.59
2018-12-30T20:55:41.328Z,78.16
2018-12-30T20:58:09.936Z,78.19
2018-12-30T21:00:38.395Z,77.92
2018-12-30T21:03:07.040Z,78.80
2018-12-30T21:05:35.569Z,78.40
2018-12-30T21:08:04.250Z,78.80
2018-12-30T21:10:32.918Z,78.65
2018-12-30T21:13:01.578Z,78.93
2018-12-30T21:15:30.330Z,80.61
2018-12-30T21:17:59.030Z,79.48
2018-12-30T21:20:27.927Z,76.95
2018-12-30T21:22:56.562Z,77.35
2018-12-30T21:25:25.082Z,77.23
2018-12-30T21:27:53.754Z,76.96
2018-12-30T21:30:22.403Z,76.94
2018-12-30T21:32:52.652Z,77.01
2018-12-30T21:35:21.252Z,78.00
2018-12-30T21:37:49.954Z,78.26
2018-12-30T21:40:18.713Z,78.76
2018-12-30T21:42:47.353Z,78.57
2018-12-30T21:45:15.922Z,78.78
2018-12-30T21:47:45.947Z,78.22
2018-12-30T21:50:15.808Z,78.73
2018-12-30T21:52:44.450Z,78.84
2018-12-30T21:55:13.137Z,77.52
2018-12-30T21:57:41.689Z,76.83
2018-12-30T22:00:10.475Z,76.64
2018-12-30T22:02:39.151Z,77.33
2018-12-30T22:05:07.812Z,77.89
2018-12-30T22:07:36.478Z,78.43
2018-12-30T22:10:06.807Z,78.67
2018-12-30T22:12:35.508Z,79.36
2018-12-30T22:15:05.148Z,78.84
2018-12-30T22:17:33.758Z,78.92
2018-12-30T22:20:02.388Z,78.87
2018-12-30T22:22:31.031Z,78.43
2018-12-30T22:24:59.612Z,79.47
2018-12-30T22:27:42.036Z,79.47
2018-12-30T22:30:10.640Z,75.90
2018-12-30T22:32:39.284Z,75.54
2018-12-30T22:35:07.947Z,76.21
2018-12-30T22:37:36.487Z,76.00
2018-12-30T22:40:07.233Z,76.92
2018-12-30T22:42:35.814Z,76.93
2018-12-30T22:45:05.276Z,77.67
2018-12-30T22:47:33.911Z,77.05
2018-12-30T22:50:02.540Z,77.48
2018-12-30T22:52:31.227Z,77.48
2018-12-30T22:54:59.886Z,77.86
2018-12-30T22:57:28.481Z,78.07
2018-12-30T22:59:57.450Z,77.96
2018-12-30T23:02:26.113Z,79.17
2018-12-30T23:04:54.857Z,77.52
2018-12-30T23:07:23.531Z,75.22
2018-12-30T23:09:52.064Z,75.42
2018-12-30T23:12:20.642Z,76.44
2018-12-30T23:14:49.317Z,76.86
2018-12-30T23:17:18.869Z,77.69
2018-12-30T23:19:47.458Z,78.24
2018-12-30T23:22:16.005Z,78.33
2018-12-30T23:24:44.710Z,79.15
2018-12-30T23:27:13.315Z,79.42
2018-12-30T23:29:42.015Z,79.30
2018-12-30T23:32:10.554Z,77.86
2018-12-30T23:34:39.200Z,78.50
2018-12-30T23:37:07.662Z,79.54
2018-12-30T23:39:36.259Z,81.66
2018-12-30T23:42:04.897Z,78.17
2018-12-30T23:44:33.445Z,76.10
2018-12-30T23:47:02.099Z,76.93
2018-12-30T23:49:30.735Z,77.83
2018-12-30T23:51:59.323Z,77.77
2018-12-30T23:54:28.018Z,77.80
2018-12-30T23:56:56.652Z,78.30
2018-12-30T23:59:25.249Z,78.25
